sensor_id;sensor_type;location;lat;lon;timestamp;P1;durP1;ratioP1;P2;durP2;ratioP2
52041;SDS011;38052;45.944;13.624;2023-06-10T00:02:16;8.07;;;7.28;;
52041;SDS011;38052;45.944;13.624;2023-06-10T00:04:43;8.20;;;7.00;;
52041;SDS011;38052;45.944;13.624;2023-06-10T00:07:09;11.10;;;7.70;;
52041;SDS011;38052;45.944;13.624;2023-06-10T00:09:36;10.13;;;7.03;;
52041;SDS011;38052;45.944;13.624;2023-06-10T00:12:05;11.13;;;6.93;;
52041;SDS011;38052;45.944;13.624;2023-06-10T00:14:32;9.35;;;7.90;;
52041;SDS011;38052;45.944;13.624;2023-06-10T00:16:58;9.35;;;7.78;;
52041;SDS011;38052;45.944;13.624;2023-06-10T00:19:25;9.93;;;7.40;;
52041;SDS011;38052;45.944;13.624;2023-06-10T00:21:55;9.13;;;6.00;;
52041;SDS011;38052;45.944;13.624;2023-06-10T00:24:21;10.00;;;7.93;;
52041;SDS011;38052;45.944;13.624;2023-06-10T00:26:47;7.90;;;6.75;;
52041;SDS011;38052;45.944;13.624;2023-06-10T00:29:14;9.40;;;6.85;;
52041;SDS011;38052;45.944;13.624;2023-06-10T00:31:41;8.85;;;7.40;;
52041;SDS011;38052;45.944;13.624;2023-06-10T00:34:07;7.82;;;7.07;;
52041;SDS011;38052;45.944;13.624;2023-06-10T00:36:34;10.65;;;8.52;;
52041;SDS011;38052;45.944;13.624;2023-06-10T00:39:00;11.43;;;7.85;;
52041;SDS011;38052;45.944;13.624;2023-06-10T00:41:27;10.73;;;7.30;;
52041;SDS011;38052;45.944;13.624;2023-06-10T00:43:54;9.65;;;8.00;;
52041;SDS011;38052;45.944;13.624;2023-06-10T00:46:21;8.70;;;7.43;;
52041;SDS011;38052;45.944;13.624;2023-06-10T00:48:47;9.88;;;8.20;;
52041;SDS011;38052;45.944;13.624;2023-06-10T00:51:14;11.20;;;7.95;;
52041;SDS011;38052;45.944;13.624;2023-06-10T00:53:41;9.93;;;7.35;;
52041;SDS011;38052;45.944;13.624;2023-06-10T00:56:08;7.78;;;5.95;;
52041;SDS011;38052;45.944;13.624;2023-06-10T00:58:34;7.97;;;7.13;;
52041;SDS011;38052;45.944;13.624;2023-06-10T01:01:00;12.30;;;7.30;;
52041;SDS011;38052;45.944;13.624;2023-06-10T01:03:27;12.07;;;7.85;;
52041;SDS011;38052;45.944;13.624;2023-06-10T01:05:55;8.50;;;7.53;;
52041;SDS011;38052;45.944;13.624;2023-06-10T01:08:33;11.45;;;8.80;;
52041;SDS011;38052;45.944;13.624;2023-06-10T01:11:02;10.80;;;8.40;;
52041;SDS011;38052;45.944;13.624;2023-06-10T01:13:30;8.60;;;7.70;;
52041;SDS011;38052;45.944;13.624;2023-06-10T01:15:58;10.18;;;8.07;;
52041;SDS011;38052;45.944;13.624;2023-06-10T01:18:29;7.72;;;6.43;;
52041;SDS011;38052;45.944;13.624;2023-06-10T01:20:55;12.93;;;7.90;;
52041;SDS011;38052;45.944;13.624;2023-06-10T01:23:22;7.90;;;7.10;;
52041;SDS011;38052;45.944;13.624;2023-06-10T01:25:53;8.75;;;7.75;;
52041;SDS011;38052;45.944;13.624;2023-06-10T01:33:25;12.40;;;6.70;;
52041;SDS011;38052;45.944;13.624;2023-06-10T01:35:52;9.70;;;8.00;;
52041;SDS011;38052;45.944;13.624;2023-06-10T01:38:19;10.65;;;8.27;;
52041;SDS011;38052;45.944;13.624;2023-06-10T01:40:46;9.90;;;8.05;;
52041;SDS011;38052;45.944;13.624;2023-06-10T01:43:14;12.10;;;8.38;;
52041;SDS011;38052;45.944;13.624;2023-06-10T01:45:40;8.90;;;7.95;;
52041;SDS011;38052;45.944;13.624;2023-06-10T01:48:07;12.07;;;9.18;;
52041;SDS011;38052;45.944;13.624;2023-06-10T01:50:33;10.80;;;9.13;;
52041;SDS011;38052;45.944;13.624;2023-06-10T01:52:59;9.65;;;8.50;;
52041;SDS011;38052;45.944;13.624;2023-06-10T01:55:26;9.77;;;8.77;;
52041;SDS011;38052;45.944;13.624;2023-06-10T01:57:53;10.73;;;8.80;;
52041;SDS011;38052;45.944;13.624;2023-06-10T02:00:19;11.27;;;8.45;;
52041;SDS011;38052;45.944;13.624;2023-06-10T02:02:45;10.15;;;8.07;;
52041;SDS011;38052;45.944;13.624;2023-06-10T02:05:12;8.75;;;7.47;;
52041;SDS011;38052;45.944;13.624;2023-06-10T02:07:38;14.38;;;7.90;;
52041;SDS011;38052;45.944;13.624;2023-06-10T02:10:05;9.20;;;6.85;;
52041;SDS011;38052;45.944;13.624;2023-06-10T02:12:31;8.10;;;7.28;;
52041;SDS011;38052;45.944;13.624;2023-06-10T02:14:58;8.82;;;7.05;;
52041;SDS011;38052;45.944;13.624;2023-06-10T02:17:24;9.23;;;6.50;;
52041;SDS011;38052;45.944;13.624;2023-06-10T02:19:51;8.52;;;6.95;;
52041;SDS011;38052;45.944;13.624;2023-06-10T02:22:21;9.23;;;7.72;;
52041;SDS011;38052;45.944;13.624;2023-06-10T02:24:48;18.75;;;8.55;;
52041;SDS011;38052;45.944;13.624;2023-06-10T02:27:15;9.65;;;7.70;;
52041;SDS011;38052;45.944;13.624;2023-06-10T02:29:41;9.32;;;7.03;;
52041;SDS011;38052;45.944;13.624;2023-06-10T02:32:08;9.60;;;8.30;;
52041;SDS011;38052;45.944;13.624;2023-06-10T02:34:34;14.55;;;8.02;;
52041;SDS011;38052;45.944;13.624;2023-06-10T02:37:01;9.68;;;7.25;;
52041;SDS011;38052;45.944;13.624;2023-06-10T02:39:28;9.52;;;6.82;;
52041;SDS011;38052;45.944;13.624;2023-06-10T02:41:54;10.55;;;7.07;;
52041;SDS011;38052;45.944;13.624;2023-06-10T02:44:20;9.10;;;7.45;;
52041;SDS011;38052;45.944;13.624;2023-06-10T02:46:47;8.43;;;7.32;;
52041;SDS011;38052;45.944;13.624;2023-06-10T02:49:13;8.82;;;7.93;;
52041;SDS011;38052;45.944;13.624;2023-06-10T02:51:40;10.38;;;7.15;;
52041;SDS011;38052;45.944;13.624;2023-06-10T02:54:06;10.50;;;7.90;;
52041;SDS011;38052;45.944;13.624;2023-06-10T02:56:32;13.68;;;9.05;;
52041;SDS011;38052;45.944;13.624;2023-06-10T02:58:59;10.20;;;7.40;;
52041;SDS011;38052;45.944;13.624;2023-06-10T03:01:25;8.55;;;7.40;;
52041;SDS011;38052;45.944;13.624;2023-06-10T03:03:51;10.00;;;8.20;;
52041;SDS011;38052;45.944;13.624;2023-06-10T03:06:17;9.35;;;7.55;;
52041;SDS011;38052;45.944;13.624;2023-06-10T03:08:44;12.02;;;8.55;;
52041;SDS011;38052;45.944;13.624;2023-06-10T03:11:30;9.73;;;8.73;;
52041;SDS011;38052;45.944;13.624;2023-06-10T03:13:56;9.07;;;8.02;;
52041;SDS011;38052;45.944;13.624;2023-06-10T03:16:22;7.60;;;6.80;;
52041;SDS011;38052;45.944;13.624;2023-06-10T03:18:50;8.13;;;6.88;;
52041;SDS011;38052;45.944;13.624;2023-06-10T03:21:16;11.40;;;8.27;;
52041;SDS011;38052;45.944;13.624;2023-06-10T03:23:43;10.00;;;9.00;;
52041;SDS011;38052;45.944;13.624;2023-06-10T03:26:10;9.55;;;8.55;;
52041;SDS011;38052;45.944;13.624;2023-06-10T03:28:37;12.15;;;9.43;;
52041;SDS011;38052;45.944;13.624;2023-06-10T03:31:03;9.77;;;8.23;;
52041;SDS011;38052;45.944;13.624;2023-06-10T03:33:30;9.50;;;8.30;;
52041;SDS011;38052;45.944;13.624;2023-06-10T03:35:56;8.40;;;7.47;;
52041;SDS011;38052;45.944;13.624;2023-06-10T03:38:22;12.48;;;7.72;;
52041;SDS011;38052;45.944;13.624;2023-06-10T03:40:49;11.88;;;8.50;;
52041;SDS011;38052;45.944;13.624;2023-06-10T03:43:17;8.25;;;6.82;;
52041;SDS011;38052;45.944;13.624;2023-06-10T03:45:45;11.55;;;7.25;;
52041;SDS011;38052;45.944;13.624;2023-06-10T03:48:11;8.60;;;7.72;;
52041;SDS011;38052;45.944;13.624;2023-06-10T03:50:37;9.27;;;8.30;;
52041;SDS011;38052;45.944;13.624;2023-06-10T03:53:04;9.18;;;8.07;;
52041;SDS011;38052;45.944;13.624;2023-06-10T03:55:31;9.73;;;8.15;;
52041;SDS011;38052;45.944;13.624;2023-06-10T03:57:57;9.50;;;7.45;;
52041;SDS011;38052;45.944;13.624;2023-06-10T04:00:24;8.82;;;7.68;;
52041;SDS011;38052;45.944;13.624;2023-06-10T04:02:50;8.40;;;7.53;;
52041;SDS011;38052;45.944;13.624;2023-06-10T04:05:17;9.70;;;8.20;;
52041;SDS011;38052;45.944;13.624;2023-06-10T04:07:45;10.15;;;8.35;;
52041;SDS011;38052;45.944;13.624;2023-06-10T04:10:13;10.85;;;7.40;;
52041;SDS011;38052;45.944;13.624;2023-06-10T04:12:40;8.88;;;7.97;;
52041;SDS011;38052;45.944;13.624;2023-06-10T04:15:07;10.95;;;7.93;;
52041;SDS011;38052;45.944;13.624;2023-06-10T04:17:33;11.27;;;8.23;;
52041;SDS011;38052;45.944;13.624;2023-06-10T04:20:00;8.05;;;7.03;;
52041;SDS011;38052;45.944;13.624;2023-06-10T04:22:28;8.93;;;7.30;;
52041;SDS011;38052;45.944;13.624;2023-06-10T04:24:55;9.40;;;8.05;;
52041;SDS011;38052;45.944;13.624;2023-06-10T04:27:21;10.85;;;8.65;;
52041;SDS011;38052;45.944;13.624;2023-06-10T04:29:48;10.82;;;8.57;;
52041;SDS011;38052;45.944;13.624;2023-06-10T04:32:15;10.88;;;7.32;;
52041;SDS011;38052;45.944;13.624;2023-06-10T04:34:41;9.30;;;7.38;;
52041;SDS011;38052;45.944;13.624;2023-06-10T04:37:08;13.40;;;6.90;;
52041;SDS011;38052;45.944;13.624;2023-06-10T04:39:34;9.70;;;7.40;;
52041;SDS011;38052;45.944;13.624;2023-06-10T04:42:01;12.23;;;7.32;;
52041;SDS011;38052;45.944;13.624;2023-06-10T04:44:27;9.80;;;7.53;;
52041;SDS011;38052;45.944;13.624;2023-06-10T04:46:55;10.25;;;7.93;;
52041;SDS011;38052;45.944;13.624;2023-06-10T04:49:22;10.45;;;7.82;;
52041;SDS011;38052;45.944;13.624;2023-06-10T04:51:48;9.15;;;8.10;;
52041;SDS011;38052;45.944;13.624;2023-06-10T04:54:16;7.45;;;6.65;;
52041;SDS011;38052;45.944;13.624;2023-06-10T04:56:42;9.60;;;8.35;;
52041;SDS011;38052;45.944;13.624;2023-06-10T04:59:08;9.80;;;7.68;;
52041;SDS011;38052;45.944;13.624;2023-06-10T05:01:35;9.50;;;8.25;;
52041;SDS011;38052;45.944;13.624;2023-06-10T05:04:01;8.65;;;7.10;;
52041;SDS011;38052;45.944;13.624;2023-06-10T05:06:29;9.18;;;6.75;;
52041;SDS011;38052;45.944;13.624;2023-06-10T05:08:55;9.35;;;7.32;;
52041;SDS011;38052;45.944;13.624;2023-06-10T05:11:22;9.77;;;8.23;;
52041;SDS011;38052;45.944;13.624;2023-06-10T05:13:48;12.70;;;8.23;;
52041;SDS011;38052;45.944;13.624;2023-06-10T05:16:14;9.77;;;8.35;;
52041;SDS011;38052;45.944;13.624;2023-06-10T05:18:41;9.00;;;7.75;;
52041;SDS011;38052;45.944;13.624;2023-06-10T05:21:08;8.75;;;6.85;;
52041;SDS011;38052;45.944;13.624;2023-06-10T05:23:34;9.35;;;7.80;;
52041;SDS011;38052;45.944;13.624;2023-06-10T05:26:01;10.93;;;7.43;;
52041;SDS011;38052;45.944;13.624;2023-06-10T05:28:27;9.63;;;7.30;;
52041;SDS011;38052;45.944;13.624;2023-06-10T05:30:53;8.52;;;7.63;;
52041;SDS011;38052;45.944;13.624;2023-06-10T05:33:19;12.65;;;7.72;;
52041;SDS011;38052;45.944;13.624;2023-06-10T05:35:46;9.82;;;7.22;;
52041;SDS011;38052;45.944;13.624;2023-06-10T05:38:12;12.57;;;7.13;;
52041;SDS011;38052;45.944;13.624;2023-06-10T05:40:39;10.48;;;6.55;;
52041;SDS011;38052;45.944;13.624;2023-06-10T05:43:05;6.97;;;6.28;;
52041;SDS011;38052;45.944;13.624;2023-06-10T05:45:32;9.48;;;8.15;;
52041;SDS011;38052;45.944;13.624;2023-06-10T05:47:58;8.90;;;7.25;;
52041;SDS011;38052;45.944;13.624;2023-06-10T05:50:25;7.57;;;6.78;;
52041;SDS011;38052;45.944;13.624;2023-06-10T05:52:51;14.95;;;7.03;;
52041;SDS011;38052;45.944;13.624;2023-06-10T05:55:18;8.35;;;7.15;;
52041;SDS011;38052;45.944;13.624;2023-06-10T05:57:45;7.40;;;6.53;;
52041;SDS011;38052;45.944;13.624;2023-06-10T06:00:12;10.30;;;6.28;;
52041;SDS011;38052;45.944;13.624;2023-06-10T06:02:38;8.57;;;6.63;;
52041;SDS011;38052;45.944;13.624;2023-06-10T06:05:04;7.82;;;5.78;;
52041;SDS011;38052;45.944;13.624;2023-06-10T06:07:31;7.82;;;6.63;;
52041;SDS011;38052;45.944;13.624;2023-06-10T06:09:58;10.75;;;6.20;;
52041;SDS011;38052;45.944;13.624;2023-06-10T06:12:25;7.82;;;6.00;;
52041;SDS011;38052;45.944;13.624;2023-06-10T06:14:51;6.88;;;6.18;;
52041;SDS011;38052;45.944;13.624;2023-06-10T06:17:18;9.32;;;6.22;;
52041;SDS011;38052;45.944;13.624;2023-06-10T06:19:44;7.13;;;5.60;;
52041;SDS011;38052;45.944;13.624;2023-06-10T06:22:12;6.85;;;6.15;;
52041;SDS011;38052;45.944;13.624;2023-06-10T06:24:39;8.60;;;6.03;;
52041;SDS011;38052;45.944;13.624;2023-06-10T06:27:05;7.20;;;6.50;;
52041;SDS011;38052;45.944;13.624;2023-06-10T06:29:32;10.07;;;6.13;;
52041;SDS011;38052;45.944;13.624;2023-06-10T06:31:58;8.98;;;5.60;;
52041;SDS011;38052;45.944;13.624;2023-06-10T06:34:25;6.72;;;5.38;;
52041;SDS011;38052;45.944;13.624;2023-06-10T06:36:52;5.43;;;4.57;;
52041;SDS011;38052;45.944;13.624;2023-06-10T06:39:19;8.02;;;5.20;;
52041;SDS011;38052;45.944;13.624;2023-06-10T06:41:45;6.68;;;4.85;;
52041;SDS011;38052;45.944;13.624;2023-06-10T06:44:12;6.18;;;5.00;;
52041;SDS011;38052;45.944;13.624;2023-06-10T06:46:39;11.30;;;5.05;;
52041;SDS011;38052;45.944;13.624;2023-06-10T06:49:05;8.02;;;6.10;;
52041;SDS011;38052;45.944;13.624;2023-06-10T06:51:31;7.47;;;4.88;;
52041;SDS011;38052;45.944;13.624;2023-06-10T06:53:58;10.68;;;5.90;;
52041;SDS011;38052;45.944;13.624;2023-06-10T06:56:24;7.45;;;4.65;;
52041;SDS011;38052;45.944;13.624;2023-06-10T06:58:53;7.13;;;5.88;;
52041;SDS011;38052;45.944;13.624;2023-06-10T07:01:19;7.47;;;6.20;;
52041;SDS011;38052;45.944;13.624;2023-06-10T07:03:45;5.63;;;5.07;;
52041;SDS011;38052;45.944;13.624;2023-06-10T07:06:12;5.22;;;4.43;;
52041;SDS011;38052;45.944;13.624;2023-06-10T07:08:38;12.10;;;5.43;;
52041;SDS011;38052;45.944;13.624;2023-06-10T07:11:05;10.45;;;5.75;;
52041;SDS011;38052;45.944;13.624;2023-06-10T07:13:32;6.70;;;5.70;;
52041;SDS011;38052;45.944;13.624;2023-06-10T07:15:58;6.75;;;4.93;;
52041;SDS011;38052;45.944;13.624;2023-06-10T07:18:24;8.18;;;6.25;;
52041;SDS011;38052;45.944;13.624;2023-06-10T07:20:51;9.43;;;6.03;;
52041;SDS011;38052;45.944;13.624;2023-06-10T07:23:17;8.00;;;6.60;;
52041;SDS011;38052;45.944;13.624;2023-06-10T07:25:43;8.75;;;6.90;;
52041;SDS011;38052;45.944;13.624;2023-06-10T07:28:10;5.45;;;4.95;;
52041;SDS011;38052;45.944;13.624;2023-06-10T07:30:37;8.77;;;6.45;;
52041;SDS011;38052;45.944;13.624;2023-06-10T07:33:03;7.82;;;6.97;;
52041;SDS011;38052;45.944;13.624;2023-06-10T07:35:32;9.43;;;6.10;;
52041;SDS011;38052;45.944;13.624;2023-06-10T07:37:59;6.70;;;5.93;;
52041;SDS011;38052;45.944;13.624;2023-06-10T07:40:26;9.00;;;5.95;;
52041;SDS011;38052;45.944;13.624;2023-06-10T07:42:52;8.10;;;6.47;;
52041;SDS011;38052;45.944;13.624;2023-06-10T07:45:19;8.55;;;6.47;;
52041;SDS011;38052;45.944;13.624;2023-06-10T07:47:45;7.47;;;5.45;;
52041;SDS011;38052;45.944;13.624;2023-06-10T07:50:12;8.13;;;7.10;;
52041;SDS011;38052;45.944;13.624;2023-06-10T07:52:39;7.63;;;6.55;;
52041;SDS011;38052;45.944;13.624;2023-06-10T07:55:06;8.48;;;5.53;;
52041;SDS011;38052;45.944;13.624;2023-06-10T07:57:32;8.38;;;5.47;;
52041;SDS011;38052;45.944;13.624;2023-06-10T08:00:01;10.13;;;6.38;;
52041;SDS011;38052;45.944;13.624;2023-06-10T08:02:29;7.22;;;4.90;;
52041;SDS011;38052;45.944;13.624;2023-06-10T08:04:55;6.85;;;5.35;;
52041;SDS011;38052;45.944;13.624;2023-06-10T08:07:22;8.50;;;5.22;;
52041;SDS011;38052;45.944;13.624;2023-06-10T08:09:48;5.82;;;5.32;;
52041;SDS011;38052;45.944;13.624;2023-06-10T08:12:15;6.05;;;5.45;;
52041;SDS011;38052;45.944;13.624;2023-06-10T08:14:41;7.70;;;6.28;;
52041;SDS011;38052;45.944;13.624;2023-06-10T08:17:08;7.07;;;6.10;;
52041;SDS011;38052;45.944;13.624;2023-06-10T08:19:34;6.18;;;5.07;;
52041;SDS011;38052;45.944;13.624;2023-06-10T08:22:01;7.97;;;6.35;;
52041;SDS011;38052;45.944;13.624;2023-06-10T08:24:27;8.80;;;5.43;;
52041;SDS011;38052;45.944;13.624;2023-06-10T08:26:54;6.97;;;4.97;;
52041;SDS011;38052;45.944;13.624;2023-06-10T08:29:22;4.95;;;4.40;;
52041;SDS011;38052;45.944;13.624;2023-06-10T08:31:49;7.57;;;4.85;;
52041;SDS011;38052;45.944;13.624;2023-06-10T08:34:16;8.68;;;4.18;;
52041;SDS011;38052;45.944;13.624;2023-06-10T08:36:43;5.88;;;4.63;;
52041;SDS011;38052;45.944;13.624;2023-06-10T08:39:10;6.93;;;4.75;;
52041;SDS011;38052;45.944;13.624;2023-06-10T08:41:39;8.43;;;5.70;;
52041;SDS011;38052;45.944;13.624;2023-06-10T08:44:08;6.80;;;5.57;;
52041;SDS011;38052;45.944;13.624;2023-06-10T08:46:36;7.15;;;5.40;;
52041;SDS011;38052;45.944;13.624;2023-06-10T08:49:03;6.75;;;5.32;;
52041;SDS011;38052;45.944;13.624;2023-06-10T08:51:32;7.63;;;4.85;;
52041;SDS011;38052;45.944;13.624;2023-06-10T08:54:10;7.75;;;4.78;;
52041;SDS011;38052;45.944;13.624;2023-06-10T08:56:38;10.13;;;5.45;;
52041;SDS011;38052;45.944;13.624;2023-06-10T08:59:05;8.25;;;5.80;;
52041;SDS011;38052;45.944;13.624;2023-06-10T09:01:31;7.78;;;6.15;;
52041;SDS011;38052;45.944;13.624;2023-06-10T09:03:58;10.43;;;6.45;;
52041;SDS011;38052;45.944;13.624;2023-06-10T09:06:25;8.70;;;5.30;;
52041;SDS011;38052;45.944;13.624;2023-06-10T09:08:52;8.52;;;5.55;;
52041;SDS011;38052;45.944;13.624;2023-06-10T09:11:18;9.57;;;4.80;;
52041;SDS011;38052;45.944;13.624;2023-06-10T09:13:45;7.10;;;4.47;;
52041;SDS011;38052;45.944;13.624;2023-06-10T09:16:11;7.57;;;6.60;;
52041;SDS011;38052;45.944;13.624;2023-06-10T09:18:38;6.20;;;5.32;;
52041;SDS011;38052;45.944;13.624;2023-06-10T09:21:05;10.30;;;7.10;;
52041;SDS011;38052;45.944;13.624;2023-06-10T09:23:31;11.60;;;6.07;;
52041;SDS011;38052;45.944;13.624;2023-06-10T09:25:58;6.20;;;4.78;;
52041;SDS011;38052;45.944;13.624;2023-06-10T09:28:24;7.10;;;5.32;;
52041;SDS011;38052;45.944;13.624;2023-06-10T09:31:01;8.00;;;6.30;;
52041;SDS011;38052;45.944;13.624;2023-06-10T09:33:27;9.63;;;5.70;;
52041;SDS011;38052;45.944;13.624;2023-06-10T09:35:53;8.20;;;6.72;;
52041;SDS011;38052;45.944;13.624;2023-06-10T09:38:22;8.30;;;5.68;;
52041;SDS011;38052;45.944;13.624;2023-06-10T09:40:51;6.50;;;5.68;;
52041;SDS011;38052;45.944;13.624;2023-06-10T09:43:19;8.90;;;7.65;;
52041;SDS011;38052;45.944;13.624;2023-06-10T09:45:47;10.27;;;7.05;;
52041;SDS011;38052;45.944;13.624;2023-06-10T09:48:13;8.93;;;7.18;;
52041;SDS011;38052;45.944;13.624;2023-06-10T09:50:43;7.47;;;5.68;;
52041;SDS011;38052;45.944;13.624;2023-06-10T09:55:39;8.25;;;5.00;;
52041;SDS011;38052;45.944;13.624;2023-06-10T09:58:05;9.00;;;6.88;;
52041;SDS011;38052;45.944;13.624;2023-06-10T10:00:32;9.65;;;8.18;;
52041;SDS011;38052;45.944;13.624;2023-06-10T10:02:58;9.60;;;8.20;;
52041;SDS011;38052;45.944;13.624;2023-06-10T10:05:24;6.53;;;5.30;;
52041;SDS011;38052;45.944;13.624;2023-06-10T10:07:51;7.47;;;5.93;;
52041;SDS011;38052;45.944;13.624;2023-06-10T10:10:19;8.63;;;6.10;;
52041;SDS011;38052;45.944;13.624;2023-06-10T10:12:48;9.75;;;7.82;;
52041;SDS011;38052;45.944;13.624;2023-06-10T10:15:17;8.00;;;5.97;;
52041;SDS011;38052;45.944;13.624;2023-06-10T10:17:52;7.07;;;5.40;;
52041;SDS011;38052;45.944;13.624;2023-06-10T10:20:20;7.65;;;6.75;;
52041;SDS011;38052;45.944;13.624;2023-06-10T10:22:48;5.35;;;4.47;;
52041;SDS011;38052;45.944;13.624;2023-06-10T10:25:20;4.95;;;4.38;;
52041;SDS011;38052;45.944;13.624;2023-06-10T10:27:51;4.85;;;4.15;;
52041;SDS011;38052;45.944;13.624;2023-06-10T10:30:19;4.80;;;3.83;;
52041;SDS011;38052;45.944;13.624;2023-06-10T10:33:06;10.85;;;4.60;;
52041;SDS011;38052;45.944;13.624;2023-06-10T10:35:34;5.40;;;4.88;;
52041;SDS011;38052;45.944;13.624;2023-06-10T10:38:02;6.70;;;4.10;;
52041;SDS011;38052;45.944;13.624;2023-06-10T10:40:28;5.25;;;4.20;;
52041;SDS011;38052;45.944;13.624;2023-06-10T10:42:56;7.57;;;5.22;;
52041;SDS011;38052;45.944;13.624;2023-06-10T10:45:22;8.48;;;5.07;;
52041;SDS011;38052;45.944;13.624;2023-06-10T10:47:52;6.47;;;4.85;;
52041;SDS011;38052;45.944;13.624;2023-06-10T10:50:19;5.70;;;5.03;;
52041;SDS011;38052;45.944;13.624;2023-06-10T10:52:56;5.20;;;4.30;;
52041;SDS011;38052;45.944;13.624;2023-06-10T10:55:23;6.65;;;5.95;;
52041;SDS011;38052;45.944;13.624;2023-06-10T10:57:59;8.60;;;5.35;;
52041;SDS011;38052;45.944;13.624;2023-06-10T11:00:32;8.05;;;6.20;;
52041;SDS011;38052;45.944;13.624;2023-06-10T11:05:38;9.68;;;6.22;;
52041;SDS011;38052;45.944;13.624;2023-06-10T11:08:05;7.22;;;6.07;;
52041;SDS011;38052;45.944;13.624;2023-06-10T11:10:35;14.32;;;7.35;;
52041;SDS011;38052;45.944;13.624;2023-06-10T11:13:14;7.10;;;5.22;;
52041;SDS011;38052;45.944;13.624;2023-06-10T11:15:44;4.07;;;3.72;;
52041;SDS011;38052;45.944;13.624;2023-06-10T11:26:11;6.30;;;2.30;;
52041;SDS011;38052;45.944;13.624;2023-06-10T11:28:41;4.20;;;2.22;;
52041;SDS011;38052;45.944;13.624;2023-06-10T11:33:44;4.80;;;2.10;;
52041;SDS011;38052;45.944;13.624;2023-06-10T11:36:10;4.07;;;2.15;;
52041;SDS011;38052;45.944;13.624;2023-06-10T11:38:37;3.92;;;2.55;;
52041;SDS011;38052;45.944;13.624;2023-06-10T11:41:04;5.50;;;3.15;;
52041;SDS011;38052;45.944;13.624;2023-06-10T11:43:30;4.15;;;3.70;;
52041;SDS011;38052;45.944;13.624;2023-06-10T11:45:56;5.97;;;3.60;;
52041;SDS011;38052;45.944;13.624;2023-06-10T11:48:23;5.90;;;3.60;;
52041;SDS011;38052;45.944;13.624;2023-06-10T11:50:49;6.80;;;3.65;;
52041;SDS011;38052;45.944;13.624;2023-06-10T11:53:16;3.38;;;2.50;;
52041;SDS011;38052;45.944;13.624;2023-06-10T11:55:43;7.70;;;4.05;;
52041;SDS011;38052;45.944;13.624;2023-06-10T12:00:46;6.32;;;3.30;;
52041;SDS011;38052;45.944;13.624;2023-06-10T12:03:13;4.78;;;3.42;;
52041;SDS011;38052;45.944;13.624;2023-06-10T12:05:39;9.20;;;3.53;;
52041;SDS011;38052;45.944;13.624;2023-06-10T12:08:08;6.60;;;3.92;;
52041;SDS011;38052;45.944;13.624;2023-06-10T12:10:39;6.43;;;4.30;;
52041;SDS011;38052;45.944;13.624;2023-06-10T12:13:05;4.07;;;3.42;;
52041;SDS011;38052;45.944;13.624;2023-06-10T12:15:32;3.97;;;3.58;;
52041;SDS011;38052;45.944;13.624;2023-06-10T12:17:59;4.00;;;3.63;;
52041;SDS011;38052;45.944;13.624;2023-06-10T12:20:28;4.75;;;3.85;;
52041;SDS011;38052;45.944;13.624;2023-06-10T12:22:55;4.75;;;3.60;;
52041;SDS011;38052;45.944;13.624;2023-06-10T12:25:24;6.43;;;3.38;;
52041;SDS011;38052;45.944;13.624;2023-06-10T12:30:21;4.93;;;4.03;;
52041;SDS011;38052;45.944;13.624;2023-06-10T12:32:47;5.28;;;4.00;;
52041;SDS011;38052;45.944;13.624;2023-06-10T12:35:16;3.50;;;3.17;;
52041;SDS011;38052;45.944;13.624;2023-06-10T12:37:43;6.80;;;4.15;;
52041;SDS011;38052;45.944;13.624;2023-06-10T12:40:25;4.00;;;3.28;;
52041;SDS011;38052;45.944;13.624;2023-06-10T12:42:51;5.13;;;3.70;;
52041;SDS011;38052;45.944;13.624;2023-06-10T12:45:25;5.97;;;3.38;;
52041;SDS011;38052;45.944;13.624;2023-06-10T12:48:03;5.50;;;3.80;;
52041;SDS011;38052;45.944;13.624;2023-06-10T12:50:30;4.03;;;3.03;;
52041;SDS011;38052;45.944;13.624;2023-06-10T12:52:56;5.03;;;4.00;;
52041;SDS011;38052;45.944;13.624;2023-06-10T12:55:23;4.95;;;4.18;;
52041;SDS011;38052;45.944;13.624;2023-06-10T12:57:50;7.90;;;4.78;;
52041;SDS011;38052;45.944;13.624;2023-06-10T13:00:17;5.18;;;3.90;;
52041;SDS011;38052;45.944;13.624;2023-06-10T13:02:43;4.90;;;4.40;;
52041;SDS011;38052;45.944;13.624;2023-06-10T13:05:10;4.53;;;3.85;;
52041;SDS011;38052;45.944;13.624;2023-06-10T13:07:36;12.27;;;4.63;;
52041;SDS011;38052;45.944;13.624;2023-06-10T13:10:03;6.53;;;4.47;;
52041;SDS011;38052;45.944;13.624;2023-06-10T13:12:29;6.55;;;4.93;;
52041;SDS011;38052;45.944;13.624;2023-06-10T13:14:56;7.82;;;4.57;;
52041;SDS011;38052;45.944;13.624;2023-06-10T13:17:22;7.28;;;3.90;;
52041;SDS011;38052;45.944;13.624;2023-06-10T13:19:49;7.03;;;3.65;;
52041;SDS011;38052;45.944;13.624;2023-06-10T13:22:16;4.13;;;3.72;;
52041;SDS011;38052;45.944;13.624;2023-06-10T13:24:44;5.05;;;3.83;;
52041;SDS011;38052;45.944;13.624;2023-06-10T13:27:10;5.03;;;3.80;;
52041;SDS011;38052;45.944;13.624;2023-06-10T13:29:39;6.03;;;4.53;;
52041;SDS011;38052;45.944;13.624;2023-06-10T13:32:05;12.85;;;4.18;;
52041;SDS011;38052;45.944;13.624;2023-06-10T13:34:32;6.45;;;4.13;;
52041;SDS011;38052;45.944;13.624;2023-06-10T13:36:58;5.93;;;4.80;;
52041;SDS011;38052;45.944;13.624;2023-06-10T13:39:24;7.25;;;4.65;;
52041;SDS011;38052;45.944;13.624;2023-06-10T13:41:50;4.82;;;4.13;;
52041;SDS011;38052;45.944;13.624;2023-06-10T13:44:17;6.65;;;5.15;;
52041;SDS011;38052;45.944;13.624;2023-06-10T13:46:43;5.32;;;4.82;;
52041;SDS011;38052;45.944;13.624;2023-06-10T13:49:10;10.07;;;5.30;;
52041;SDS011;38052;45.944;13.624;2023-06-10T13:51:36;6.32;;;5.60;;
52041;SDS011;38052;45.944;13.624;2023-06-10T13:54:03;6.95;;;5.35;;
52041;SDS011;38052;45.944;13.624;2023-06-10T13:56:29;4.95;;;4.40;;
52041;SDS011;38052;45.944;13.624;2023-06-10T13:58:56;8.77;;;5.32;;
52041;SDS011;38052;45.944;13.624;2023-06-10T14:01:22;5.90;;;5.30;;
52041;SDS011;38052;45.944;13.624;2023-06-10T14:03:50;8.48;;;5.50;;
52041;SDS011;38052;45.944;13.624;2023-06-10T14:06:17;5.53;;;5.03;;
52041;SDS011;38052;45.944;13.624;2023-06-10T14:08:44;7.30;;;5.53;;
52041;SDS011;38052;45.944;13.624;2023-06-10T14:11:10;5.25;;;4.75;;
52041;SDS011;38052;45.944;13.624;2023-06-10T14:13:37;7.22;;;5.75;;
52041;SDS011;38052;45.944;13.624;2023-06-10T14:16:04;7.22;;;5.38;;
52041;SDS011;38052;45.944;13.624;2023-06-10T14:18:30;5.57;;;4.97;;
52041;SDS011;38052;45.944;13.624;2023-06-10T14:20:57;4.97;;;4.45;;
52041;SDS011;38052;45.944;13.624;2023-06-10T14:23:24;6.60;;;4.70;;
52041;SDS011;38052;45.944;13.624;2023-06-10T14:25:51;5.97;;;4.88;;
52041;SDS011;38052;45.944;13.624;2023-06-10T14:28:17;5.40;;;4.75;;
52041;SDS011;38052;45.944;13.624;2023-06-10T14:30:44;9.02;;;4.93;;
52041;SDS011;38052;45.944;13.624;2023-06-10T14:33:11;6.25;;;4.50;;
52041;SDS011;38052;45.944;13.624;2023-06-10T14:35:37;6.35;;;4.38;;
52041;SDS011;38052;45.944;13.624;2023-06-10T14:38:04;6.43;;;4.47;;
52041;SDS011;38052;45.944;13.624;2023-06-10T14:40:30;5.30;;;4.20;;
52041;SDS011;38052;45.944;13.624;2023-06-10T14:42:57;3.85;;;3.50;;
52041;SDS011;38052;45.944;13.624;2023-06-10T14:45:23;5.65;;;4.47;;
52041;SDS011;38052;45.944;13.624;2023-06-10T14:47:50;4.28;;;3.85;;
52041;SDS011;38052;45.944;13.624;2023-06-10T14:50:16;5.07;;;3.65;;
52041;SDS011;38052;45.944;13.624;2023-06-10T14:52:43;5.57;;;4.93;;
52041;SDS011;38052;45.944;13.624;2023-06-10T14:55:09;6.03;;;4.90;;
52041;SDS011;38052;45.944;13.624;2023-06-10T14:57:35;5.32;;;4.78;;